Time;durP1;ratioP1;P1;durP2;ratioP2;P2;SDS_P1;SDS_P2;PMS_P1;PMS_P2;Temp;Humidity;BMP_temperature;BMP_pressure;BME280_temperature;BME280_humidity;BME280_pressure;Samples;Min_cycle;Max_cycle;Signal;HPM_P1;HPM_P2
2021/06/25 00:01:34;;;;;;;41.75;30.17;;;15.80;99.90;;;;;;5109881;28;20163;-73
2021/06/25 00:04:00;;;;;;;43.40;28.95;;;15.60;99.90;;;;;;5109289;28;20612;-72
2021/06/25 00:06:25;;;;;;;46.55;29.05;;;15.70;99.90;;;;;;5127867;28;20174;-73
2021/06/25 00:08:51;;;;;;;40.25;28.67;;;15.60;99.90;;;;;;5125389;28;20197;-73
2021/06/25 00:11:17;;;;;;;38.20;28.50;;;15.80;99.90;;;;;;5127760;28;20177;-74
2021/06/25 00:13:43;;;;;;;33.75;28.02;;;15.90;99.90;;;;;;5127415;28;20163;-73
2021/06/25 00:16:08;;;;;;;38.05;28.48;;;15.90;99.90;;;;;;5109238;28;20173;-73
2021/06/25 00:18:34;;;;;;;37.15;29.50;;;15.70;99.90;;;;;;5125259;28;20159;-73
2021/06/25 00:21:00;;;;;;;35.90;27.92;;;15.80;99.90;;;;;;5127741;28;20154;-73
2021/06/25 00:23:25;;;;;;;31.70;26.13;;;15.80;99.90;;;;;;5127619;28;20155;-73
2021/06/25 00:25:51;;;;;;;30.58;24.65;;;15.60;99.90;;;;;;5127664;28;20177;-72
2021/06/25 00:28:18;;;;;;;35.97;26.55;;;15.30;99.90;;;;;;5124125;28;20175;-73
2021/06/25 00:30:43;;;;;;;29.10;24.50;;;15.20;99.90;;;;;;5127713;28;20166;-73
2021/06/25 00:33:10;;;;;;;28.58;23.48;;;15.10;99.90;;;;;;5108899;28;20190;-74
2021/06/25 00:35:37;;;;;;;28.50;22.95;;;15.10;99.90;;;;;;5127272;28;20163;-73
2021/06/25 00:38:04;;;;;;;30.77;24.13;;;15.10;99.90;;;;;;5106379;28;20162;-73
2021/06/25 00:40:30;;;;;;;25.90;22.13;;;15.10;99.90;;;;;;5109363;28;20197;-73
2021/06/25 00:42:56;;;;;;;26.55;19.80;;;15.10;99.90;;;;;;5127004;28;20234;-72
2021/06/25 00:45:22;;;;;;;21.40;17.17;;;15.20;99.90;;;;;;5109040;28;20170;-73
2021/06/25 00:47:49;;;;;;;18.25;16.30;;;15.20;99.90;;;;;;5124811;28;20159;-74
2021/06/25 00:50:19;;;;;;;17.65;15.95;;;15.20;99.90;;;;;;5127137;28;20173;-74
2021/06/25 00:52:45;;;;;;;23.88;15.95;;;15.00;99.90;;;;;;5127054;28;20198;-73
2021/06/25 00:55:11;;;;;;;21.95;16.10;;;15.00;99.90;;;;;;5108634;28;20174;-73
2021/06/25 00:57:37;;;;;;;18.08;15.40;;;14.90;99.90;;;;;;5105679;28;20458;-73
2021/06/25 01:00:06;;;;;;;17.15;14.40;;;15.00;99.90;;;;;;5126756;28;20666;-73
2021/06/25 01:02:32;;;;;;;18.13;13.85;;;15.00;99.90;;;;;;5126797;28;20167;-73
2021/06/25 01:04:57;;;;;;;16.77;12.68;;;15.00;99.90;;;;;;5126753;28;20166;-73
2021/06/25 01:07:24;;;;;;;18.27;12.43;;;15.00;99.90;;;;;;5106028;28;20645;-74
2021/06/25 01:09:51;;;;;;;24.40;12.40;;;15.10;99.90;;;;;;5127049;28;20159;-73
2021/06/25 01:12:17;;;;;;;13.68;12.27;;;15.20;99.90;;;;;;5108513;28;20202;-73
2021/06/25 01:14:43;;;;;;;17.65;12.05;;;15.20;99.90;;;;;;5126477;28;20177;-73
2021/06/25 01:17:29;;;;;;;15.63;12.60;;;15.30;99.90;;;;;;5125019;28;20187;-72
2021/06/25 01:19:58;;;;;;;14.85;13.13;;;15.20;99.90;;;;;;5126343;28;20443;-73
2021/06/25 01:22:35;;;;;;;14.00;12.60;;;15.40;99.90;;;;;;5126896;28;20165;-73
2021/06/25 01:25:15;;;;;;;17.02;12.32;;;15.30;99.90;;;;;;5108346;28;20170;-73
2021/06/25 01:27:42;;;;;;;18.17;13.00;;;15.30;99.90;;;;;;5123780;28;20180;-73
2021/06/25 01:30:11;;;;;;;19.73;12.77;;;15.20;99.90;;;;;;5108231;28;20169;-73
2021/06/25 01:32:36;;;;;;;17.73;13.13;;;15.10;99.90;;;;;;5108212;28;20198;-73
2021/06/25 01:35:03;;;;;;;19.38;13.85;;;15.30;99.90;;;;;;5126377;28;20211;-74
2021/06/25 01:37:30;;;;;;;18.02;14.18;;;15.20;99.90;;;;;;5105724;28;20205;-73
2021/06/25 01:39:56;;;;;;;17.73;13.95;;;15.20;99.90;;;;;;5125567;28;20155;-74
2021/06/25 01:42:21;;;;;;;18.50;14.75;;;15.00;99.90;;;;;;5126595;28;20166;-73
2021/06/25 01:44:50;;;;;;;20.25;15.50;;;15.00;99.90;;;;;;5125885;28;20697;-73
2021/06/25 01:47:16;;;;;;;22.35;14.82;;;15.20;99.90;;;;;;5105800;28;20167;-72
2021/06/25 01:49:42;;;;;;;21.90;15.18;;;15.00;99.90;;;;;;5126542;28;20355;-73
2021/06/25 01:52:14;;;;;;;19.70;15.63;;;14.90;99.90;;;;;;5126260;28;20663;-73
2021/06/25 01:54:40;;;;;;;19.45;15.85;;;15.00;99.90;;;;;;5126279;28;20166;-73
2021/06/25 01:57:06;;;;;;;18.25;15.32;;;15.00;99.90;;;;;;5125062;28;20159;-73
2021/06/25 01:59:31;;;;;;;17.95;14.73;;;14.90;99.90;;;;;;5106635;28;20174;-74
2021/06/25 02:01:57;;;;;;;21.60;16.42;;;14.90;99.90;;;;;;5126263;28;20523;-73
2021/06/25 02:04:23;;;;;;;20.17;14.52;;;15.00;99.90;;;;;;5126129;28;20190;-76
2021/06/25 02:06:48;;;;;;;23.52;15.85;;;15.10;99.90;;;;;;5107833;28;20214;-72
2021/06/25 02:09:14;;;;;;;18.75;16.13;;;15.20;99.90;;;;;;5123555;28;20166;-72
2021/06/25 02:11:40;;;;;;;24.30;16.75;;;15.30;99.90;;;;;;5108132;28;20186;-72
2021/06/25 02:14:05;;;;;;;24.67;16.75;;;15.20;99.90;;;;;;5125877;28;20226;-75
2021/06/25 02:16:31;;;;;;;25.00;17.00;;;15.10;99.90;;;;;;5108070;28;20185;-72
2021/06/25 02:18:57;;;;;;;27.40;17.58;;;14.90;99.90;;;;;;5123378;28;20267;-73
2021/06/25 02:21:22;;;;;;;22.92;16.67;;;14.90;99.90;;;;;;5126328;28;20170;-72
2021/06/25 02:23:48;;;;;;;19.90;16.45;;;14.70;99.90;;;;;;5126101;28;20157;-72
2021/06/25 02:26:14;;;;;;;25.70;17.02;;;14.70;99.90;;;;;;5107718;28;20667;-72
2021/06/25 02:28:39;;;;;;;26.10;17.20;;;14.70;99.90;;;;;;5123184;28;20250;-72
2021/06/25 02:31:05;;;;;;;26.88;19.05;;;14.80;99.90;;;;;;5126079;28;20667;-73
2021/06/25 02:33:30;;;;;;;31.63;19.35;;;14.80;99.90;;;;;;5125998;28;20265;-72
2021/06/25 02:35:56;;;;;;;25.77;18.50;;;15.00;99.90;;;;;;5107684;28;20174;-72
2021/06/25 02:38:22;;;;;;;22.30;18.90;;;14.90;99.90;;;;;;5123339;28;20154;-72
2021/06/25 02:40:48;;;;;;;27.85;19.27;;;15.00;99.90;;;;;;5107946;28;20227;-72
2021/06/25 02:43:13;;;;;;;25.70;18.67;;;14.80;99.90;;;;;;5125583;28;20652;-72
2021/06/25 02:45:39;;;;;;;28.30;19.50;;;14.70;99.90;;;;;;5125757;28;20175;-72
2021/06/25 02:48:06;;;;;;;24.35;19.13;;;14.70;99.90;;;;;;5104820;28;20162;-72
2021/06/25 02:50:31;;;;;;;33.97;20.15;;;14.60;99.90;;;;;;5107676;28;20170;-72
2021/06/25 02:52:57;;;;;;;25.42;19.42;;;14.60;99.90;;;;;;5128691;28;20278;-72
2021/06/25 02:55:23;;;;;;;26.50;19.30;;;14.60;99.90;;;;;;5111215;28;20171;-73
2021/06/25 02:57:48;;;;;;;23.02;19.63;;;14.80;99.90;;;;;;5126597;28;20181;-74
2021/06/25 03:00:16;;;;;;;28.00;21.10;;;14.80;99.90;;;;;;5129408;28;20173;-72
2021/06/25 03:02:43;;;;;;;26.60;20.15;;;14.60;99.90;;;;;;5129560;28;20163;-75
2021/06/25 03:05:10;;;;;;;28.75;19.52;;;14.80;99.90;;;;;;5129086;28;20179;-72
2021/06/25 03:07:36;;;;;;;32.33;20.15;;;14.70;99.90;;;;;;5126506;28;20214;-72
2021/06/25 03:10:03;;;;;;;24.25;19.58;;;14.70;99.90;;;;;;5129140;28;20210;-72
2021/06/25 03:12:29;;;;;;;26.13;20.10;;;14.70;99.90;;;;;;5110849;28;20191;-73
2021/06/25 03:14:55;;;;;;;27.45;19.60;;;14.90;99.90;;;;;;5128481;28;20234;-73
2021/06/25 03:17:20;;;;;;;26.35;19.13;;;15.00;99.90;;;;;;5108174;28;20227;-74
2021/06/25 03:19:46;;;;;;;26.25;19.10;;;14.70;99.90;;;;;;5128721;28;20186;-72
2021/06/25 03:22:12;;;;;;;25.65;19.38;;;14.70;99.90;;;;;;5128849;28;20163;-73
2021/06/25 03:24:37;;;;;;;31.15;19.80;;;14.50;99.90;;;;;;5110281;28;20158;-72
2021/06/25 03:27:03;;;;;;;27.00;20.17;;;14.50;99.90;;;;;;5127669;28;20636;-72
2021/06/25 03:29:29;;;;;;;27.17;19.48;;;14.70;99.90;;;;;;5127003;28;20648;-72
2021/06/25 03:31:55;;;;;;;28.17;19.92;;;14.70;99.90;;;;;;5128662;28;20182;-73
2021/06/25 03:34:20;;;;;;;27.15;19.65;;;14.60;99.90;;;;;;5128572;28;20209;-73
2021/06/25 03:36:46;;;;;;;28.50;20.90;;;14.50;99.90;;;;;;5110399;28;20640;-73
2021/06/25 03:39:12;;;;;;;27.35;20.05;;;14.70;99.90;;;;;;5107620;28;20167;-72
2021/06/25 03:41:37;;;;;;;30.17;19.75;;;14.70;99.90;;;;;;5128466;28;20162;-75
2021/06/25 03:44:03;;;;;;;34.13;20.20;;;14.70;99.90;;;;;;5127810;28;20177;-74
2021/06/25 03:46:29;;;;;;;27.35;19.80;;;14.40;99.90;;;;;;5128523;28;20181;-73
2021/06/25 03:48:55;;;;;;;27.02;19.33;;;14.40;99.90;;;;;;5125771;28;20171;-72
2021/06/25 03:51:21;;;;;;;26.63;20.15;;;14.40;99.90;;;;;;5128568;28;20163;-72
2021/06/25 03:53:47;;;;;;;29.08;20.80;;;14.70;99.90;;;;;;5128465;28;20158;-72
2021/06/25 03:56:14;;;;;;;28.67;20.13;;;14.60;99.90;;;;;;5128137;28;20189;-74
2021/06/25 03:58:44;;;;;;;29.95;20.42;;;14.70;99.90;;;;;;5106928;28;20651;-74
2021/06/25 04:01:10;;;;;;;27.25;20.33;;;14.80;99.90;;;;;;5128077;28;20163;-74
2021/06/25 04:03:39;;;;;;;25.40;19.67;;;15.00;99.90;;;;;;5126981;28;20155;-72
2021/06/25 04:06:06;;;;;;;29.73;20.02;;;15.10;99.90;;;;;;5127752;28;20197;-74
2021/06/25 04:08:33;;;;;;;30.30;19.65;;;15.00;99.90;;;;;;5124932;28;20271;-74
2021/06/25 04:11:00;;;;;;;28.55;19.92;;;15.10;99.90;;;;;;5127832;28;20158;-74
2021/06/25 04:13:27;;;;;;;30.58;19.80;;;15.00;99.90;;;;;;5127369;28;20254;-73
2021/06/25 04:15:54;;;;;;;26.30;20.13;;;14.90;99.90;;;;;;5127578;28;20205;-72
2021/06/25 04:18:21;;;;;;;26.35;19.63;;;15.00;99.90;;;;;;5125326;28;20237;-74
2021/06/25 04:20:46;;;;;;;27.77;21.33;;;15.10;99.90;;;;;;5109565;28;20186;-75
2021/06/25 04:23:13;;;;;;;25.30;18.95;;;15.10;99.90;;;;;;5127821;28;20196;-74
2021/06/25 04:25:39;;;;;;;27.50;19.40;;;15.00;99.90;;;;;;5127241;28;20231;-74
2021/06/25 04:28:05;;;;;;;26.83;18.23;;;15.20;99.90;;;;;;5124511;28;20234;-74
2021/06/25 04:30:32;;;;;;;27.05;19.38;;;15.10;99.90;;;;;;5109269;28;20166;-74
2021/06/25 04:33:00;;;;;;;28.65;19.58;;;15.00;99.90;;;;;;5108844;28;20278;-75
2021/06/25 04:35:26;;;;;;;29.63;18.90;;;15.00;99.90;;;;;;5109109;28;20161;-75
2021/06/25 04:37:52;;;;;;;29.80;20.55;;;14.90;99.90;;;;;;5124803;28;20159;-75
2021/06/25 04:40:17;;;;;;;27.90;18.67;;;14.80;99.90;;;;;;5127091;28;20162;-74
2021/06/25 04:42:45;;;;;;;28.38;20.23;;;14.90;99.90;;;;;;5108755;28;20170;-74
2021/06/25 04:45:12;;;;;;;27.15;19.85;;;14.90;99.90;;;;;;5126773;28;20167;-74
2021/06/25 04:47:40;;;;;;;28.70;18.63;;;14.90;99.90;;;;;;5106245;28;20162;-74
2021/06/25 04:50:06;;;;;;;28.10;18.33;;;15.00;99.90;;;;;;5126564;28;20162;-74
2021/06/25 04:52:32;;;;;;;30.65;18.67;;;15.00;99.90;;;;;;5108810;28;20382;-74
2021/06/25 04:54:58;;;;;;;23.70;18.00;;;15.00;99.90;;;;;;5108298;28;20167;-75
2021/06/25 04:57:23;;;;;;;22.70;18.05;;;15.00;99.90;;;;;;5106127;28;20287;-74
2021/06/25 04:59:49;;;;;;;25.50;18.38;;;15.00;99.90;;;;;;5126758;28;20163;-75
2021/06/25 05:02:14;;;;;;;24.50;18.73;;;15.00;99.90;;;;;;5126788;28;20163;-74
2021/06/25 05:04:40;;;;;;;25.38;17.42;;;15.10;99.90;;;;;;5126485;28;20163;-74
2021/06/25 05:07:06;;;;;;;25.45;17.48;;;15.20;99.90;;;;;;5125093;28;20206;-74
2021/06/25 05:09:31;;;;;;;24.38;17.77;;;15.20;99.90;;;;;;5125135;28;20544;-74
2021/06/25 05:11:57;;;;;;;24.92;17.45;;;15.40;99.90;;;;;;5126581;28;20194;-75
2021/06/25 05:14:22;;;;;;;28.20;18.17;;;15.40;99.90;;;;;;5126022;28;20163;-74
2021/06/25 05:16:48;;;;;;;27.15;18.67;;;15.30;99.90;;;;;;5108306;28;20163;-74
2021/06/25 05:19:14;;;;;;;25.10;18.17;;;15.30;99.90;;;;;;5123370;28;20157;-75
2021/06/25 05:21:39;;;;;;;23.42;17.45;;;15.40;99.90;;;;;;5126668;28;20578;-74
2021/06/25 05:24:05;;;;;;;28.80;18.88;;;15.40;99.90;;;;;;5108021;28;20181;-74
2021/06/25 05:26:31;;;;;;;26.48;18.38;;;15.40;99.90;;;;;;5126306;28;20170;-74
2021/06/25 05:28:57;;;;;;;27.58;18.67;;;15.30;99.90;;;;;;5123525;28;20175;-74
2021/06/25 05:31:22;;;;;;;28.58;18.77;;;15.30;99.90;;;;;;5126722;28;20214;-74
2021/06/25 05:33:48;;;;;;;21.38;16.58;;;15.50;99.90;;;;;;5108085;28;20165;-74
2021/06/25 05:36:14;;;;;;;26.20;18.02;;;15.40;99.90;;;;;;5107788;28;20166;-75
2021/06/25 05:38:39;;;;;;;23.65;16.75;;;15.40;99.90;;;;;;5123603;28;20163;-73
2021/06/25 05:41:05;;;;;;;22.73;16.83;;;15.40;99.90;;;;;;5126064;28;20159;-74
2021/06/25 05:43:31;;;;;;;24.30;17.50;;;15.40;99.90;;;;;;5125769;28;20166;-73
2021/06/25 05:45:57;;;;;;;21.88;17.10;;;15.50;99.90;;;;;;5125842;28;20174;-74
2021/06/25 05:48:22;;;;;;;27.42;16.65;;;15.50;99.90;;;;;;5105081;28;20158;-74
2021/06/25 05:50:48;;;;;;;23.08;16.20;;;15.50;99.90;;;;;;5107599;28;20223;-74
2021/06/25 05:53:14;;;;;;;21.67;16.55;;;15.60;99.90;;;;;;5126044;28;20269;-73
2021/06/25 05:55:42;;;;;;;22.92;14.82;;;15.50;99.90;;;;;;5107722;28;20278;-74
2021/06/25 05:58:08;;;;;;;22.92;15.43;;;15.60;99.90;;;;;;5104539;28;20171;-74
2021/06/25 06:00:34;;;;;;;22.55;16.15;;;15.70;99.90;;;;;;5126262;28;20244;-73
2021/06/25 06:02:59;;;;;;;24.38;16.30;;;15.70;99.90;;;;;;5125878;28;20166;-74
2021/06/25 06:05:25;;;;;;;27.00;15.52;;;15.80;99.90;;;;;;5126115;28;20191;-74
2021/06/25 06:07:51;;;;;;;23.05;15.38;;;15.70;99.90;;;;;;5123483;28;20263;-74
2021/06/25 06:10:17;;;;;;;28.33;15.38;;;15.60;99.90;;;;;;5125944;28;20783;-74
2021/06/25 06:12:44;;;;;;;21.75;14.43;;;15.60;99.90;;;;;;5126128;28;20198;-74
2021/06/25 06:15:11;;;;;;;19.77;14.60;;;15.50;99.90;;;;;;5107015;28;20175;-74
2021/06/25 06:17:42;;;;;;;20.98;14.73;;;15.60;99.90;;;;;;5123578;28;20184;-73
2021/06/25 06:20:11;;;;;;;21.70;14.50;;;15.60;99.90;;;;;;5125923;28;20158;-74
2021/06/25 06:33:38;;;;;;;27.77;15.20;;;15.80;99.90;;;;;;5129735;28;20197;-74
2021/06/25 06:36:19;;;;;;;18.42;14.18;;;15.80;99.90;;;;;;5129548;28;20173;-73
2021/06/25 06:38:45;;;;;;;25.08;14.55;;;15.90;99.90;;;;;;5127088;28;20162;-73
2021/06/25 06:41:12;;;;;;;23.20;14.57;;;15.90;99.90;;;;;;5129457;28;20162;-75
2021/06/25 06:43:39;;;;;;;17.38;14.15;;;16.20;99.90;;;;;;5129213;28;20170;-75
2021/06/25 06:46:05;;;;;;;20.52;13.35;;;16.20;99.90;;;;;;5129074;28;20226;-74
2021/06/25 06:48:30;;;;;;;18.77;13.57;;;16.40;99.90;;;;;;5108490;28;20190;-74
2021/06/25 06:50:56;;;;;;;21.02;13.98;;;16.60;99.90;;;;;;5129417;28;20664;-74
2021/06/25 06:53:22;;;;;;;17.58;12.80;;;16.70;99.90;;;;;;5129526;28;20186;-74
2021/06/25 06:55:47;;;;;;;18.38;12.35;;;16.50;99.90;;;;;;5110355;28;20208;-73
2021/06/25 06:58:13;;;;;;;17.10;12.38;;;16.60;99.90;;;;;;5125806;28;20222;-74
2021/06/25 07:00:39;;;;;;;21.40;12.15;;;16.50;99.90;;;;;;5128911;28;20155;-74
2021/06/25 07:03:05;;;;;;;18.70;11.52;;;16.50;99.90;;;;;;5128898;28;20643;-74
2021/06/25 07:05:31;;;;;;;17.70;12.13;;;16.60;99.90;;;;;;5110779;28;20181;-74
2021/06/25 07:07:56;;;;;;;16.52;11.57;;;16.60;99.90;;;;;;5125864;28;20218;-75
2021/06/25 07:10:22;;;;;;;14.32;11.10;;;16.50;99.90;;;;;;5129228;28;20162;-73
2021/06/25 07:12:50;;;;;;;13.85;11.27;;;16.50;99.90;;;;;;5128902;28;20194;-74
2021/06/25 07:15:16;;;;;;;16.50;10.80;;;16.60;99.90;;;;;;5110669;28;20174;-73
2021/06/25 07:17:41;;;;;;;18.33;11.20;;;16.60;99.90;;;;;;5126378;28;20186;-73
2021/06/25 07:20:08;;;;;;;15.20;11.70;;;16.70;99.90;;;;;;5128882;28;20155;-74
2021/06/25 07:22:34;;;;;;;12.55;10.85;;;16.90;99.90;;;;;;5128816;28;20220;-75
2021/06/25 07:25:00;;;;;;;12.20;10.45;;;16.90;99.90;;;;;;5128675;28;20163;-74
2021/06/25 07:27:26;;;;;;;16.52;11.02;;;16.90;99.90;;;;;;5107955;28;20170;-74
2021/06/25 07:29:52;;;;;;;14.52;10.43;;;16.90;99.90;;;;;;5128775;28;20180;-75
2021/06/25 07:32:18;;;;;;;15.48;10.77;;;16.90;99.90;;;;;;5128659;28;20599;-73
2021/06/25 07:34:43;;;;;;;18.77;10.35;;;17.10;99.90;;;;;;5128701;28;20544;-74
2021/06/25 07:37:09;;;;;;;16.55;10.93;;;16.90;99.90;;;;;;5126316;28;20541;-73
2021/06/25 07:39:34;;;;;;;13.68;9.52;;;17.10;99.90;;;;;;5127560;28;20612;-73
2021/06/25 07:42:00;;;;;;;10.73;8.82;;;17.30;99.90;;;;;;5128387;28;20158;-74
2021/06/25 07:44:26;;;;;;;15.13;9.40;;;17.40;99.90;;;;;;5127483;28;20590;-75
2021/06/25 07:46:51;;;;;;;10.00;9.00;;;17.30;99.90;;;;;;5128295;28;20213;-74
2021/06/25 07:49:17;;;;;;;19.27;10.75;;;17.20;99.90;;;;;;5107420;28;20171;-75
2021/06/25 07:51:43;;;;;;;15.90;10.02;;;17.20;99.90;;;;;;5128342;28;20166;-74
2021/06/25 07:54:08;;;;;;;18.67;10.10;;;17.10;99.90;;;;;;5127979;28;20176;-75
2021/06/25 07:56:34;;;;;;;11.13;9.27;;;17.10;99.90;;;;;;5128165;28;20170;-74
2021/06/25 07:59:00;;;;;;;15.85;10.25;;;17.20;99.90;;;;;;5106761;28;20163;-73
2021/06/25 08:01:25;;;;;;;13.52;10.38;;;17.20;99.90;;;;;;5109932;28;20171;-73
2021/06/25 08:03:52;;;;;;;16.58;9.88;;;17.60;99.90;;;;;;5109434;28;20166;-74
2021/06/25 08:06:18;;;;;;;15.02;9.60;;;17.50;99.90;;;;;;5127454;28;20171;-74
2021/06/25 08:08:44;;;;;;;20.08;9.80;;;17.60;99.90;;;;;;5125350;28;20222;-74
2021/06/25 08:11:10;;;;;;;10.90;9.73;;;17.80;99.90;;;;;;5127752;28;20162;-73
2021/06/25 08:13:36;;;;;;;12.10;9.63;;;17.70;99.90;;;;;;5108947;28;20198;-75
2021/06/25 08:16:02;;;;;;;13.15;9.00;;;17.90;99.90;;;;;;5127326;28;20174;-74
2021/06/25 08:18:27;;;;;;;14.63;10.43;;;17.90;99.90;;;;;;5125103;28;20159;-74
2021/06/25 08:20:53;;;;;;;17.20;10.45;;;18.00;99.90;;;;;;5127539;28;20159;-74
2021/06/25 08:23:20;;;;;;;13.90;9.45;;;18.00;99.90;;;;;;5127859;28;20180;-75
2021/06/25 08:25:46;;;;;;;12.68;9.38;;;18.20;99.90;;;;;;5109221;28;20197;-74
2021/06/25 08:28:12;;;;;;;16.05;9.77;;;18.30;99.90;;;;;;5124668;28;20162;-74
2021/06/25 08:30:38;;;;;;;12.38;9.50;;;18.20;99.90;;;;;;5109361;28;20270;-74
2021/06/25 08:33:04;;;;;;;9.80;8.43;;;18.10;99.90;;;;;;5127187;28;20582;-74
2021/06/25 08:35:30;;;;;;;15.00;9.25;;;18.10;99.90;;;;;;5127387;28;20190;-74
2021/06/25 08:37:55;;;;;;;10.70;9.45;;;17.80;99.90;;;;;;5124612;28;20560;-74
2021/06/25 08:40:22;;;;;;;17.15;9.35;;;17.90;99.90;;;;;;5109088;28;20158;-74
2021/06/25 08:42:48;;;;;;;13.43;9.38;;;17.80;99.90;;;;;;5127106;28;20162;-74
2021/06/25 08:45:15;;;;;;;14.48;9.48;;;17.90;99.90;;;;;;5126386;28;20167;-74
2021/06/25 08:47:46;;;;;;;20.08;9.20;;;17.90;99.90;;;;;;5124621;28;20238;-74
2021/06/25 08:50:14;;;;;;;14.35;8.63;;;17.80;99.90;;;;;;5126670;28;20166;-74
2021/06/25 08:52:45;;;;;;;13.90;9.40;;;18.00;99.90;;;;;;5127029;28;20186;-74
2021/06/25 08:55:11;;;;;;;11.18;8.70;;;18.30;99.90;;;;;;5126769;28;20247;-75
2021/06/25 08:57:37;;;;;;;16.58;8.43;;;18.40;99.90;;;;;;5106008;28;20480;-75
2021/06/25 09:00:07;;;;;;;10.10;7.82;;;18.60;99.90;;;;;;5108092;28;20170;-75
2021/06/25 09:02:35;;;;;;;13.80;8.45;;;18.90;99.90;;;;;;5126811;28;20246;-74
2021/06/25 09:05:01;;;;;;;17.65;8.77;;;18.80;99.90;;;;;;5108327;28;20163;-74
2021/06/25 09:07:40;;;;;;;15.18;8.32;;;18.70;99.90;;;;;;5124009;28;20218;-74
2021/06/25 09:10:06;;;;;;;10.10;8.80;;;19.10;99.90;;;;;;5126798;28;20185;-74
2021/06/25 09:12:32;;;;;;;14.40;8.30;;;19.20;99.90;;;;;;5108216;28;20186;-75
2021/06/25 09:15:13;;;;;;;15.70;8.55;;;19.10;99.90;;;;;;5126033;28;20178;-73
2021/06/25 09:18:03;;;;;;;12.00;9.02;;;18.90;99.90;;;;;;5105731;28;20163;-74
2021/06/25 09:20:40;;;;;;;13.90;8.43;;;18.60;99.90;;;;;;5126612;28;20177;-75
2021/06/25 09:23:09;;;;;;;12.93;9.25;;;18.50;99.90;;;;;;5126647;28;20504;-74
2021/06/25 09:25:55;;;;;;;12.73;8.02;;;18.50;99.90;;;;;;5126304;28;20223;-74
2021/06/25 09:28:39;;;;;;;8.65;7.75;;;18.70;99.90;;;;;;5123489;28;20167;-75
2021/06/25 09:31:16;;;;;;;15.75;8.75;;;18.90;99.90;;;;;;5126277;28;20158;-75
2021/06/25 09:33:51;;;;;;;14.32;8.10;;;19.00;99.90;;;;;;5107909;28;20190;-74
2021/06/25 09:36:21;;;;;;;9.88;8.30;;;19.20;99.90;;;;;;5125931;28;20620;-74
2021/06/25 09:38:54;;;;;;;15.73;8.77;;;19.30;99.90;;;;;;5123470;28;20233;-74
2021/06/25 09:41:21;;;;;;;8.68;7.88;;;19.30;99.90;;;;;;5108213;28;20166;-75
2021/06/25 09:44:18;;;;;;;11.15;8.80;;;19.60;99.90;;;;;;5126209;28;20170;-74
2021/06/25 09:46:44;;;;;;;13.38;7.97;;;19.60;99.90;;;;;;5105518;28;20182;-75
2021/06/25 09:49:12;;;;;;;18.38;8.27;;;19.50;99.90;;;;;;5123256;28;20235;-74
2021/06/25 09:51:56;;;;;;;11.73;7.10;;;19.20;99.90;;;;;;5126416;28;20166;-74
2021/06/25 09:54:23;;;;;;;10.35;8.07;;;19.10;99.90;;;;;;5107907;28;20170;-74
2021/06/25 09:57:27;;;;;;;13.45;8.10;;;18.80;99.90;;;;;;5125717;28;20159;-74
2021/06/25 09:59:58;;;;;;;14.98;8.32;;;18.70;99.90;;;;;;5121451;28;20175;-75
2021/06/25 10:02:26;;;;;;;17.27;8.73;;;18.80;99.90;;;;;;5128372;28;20224;-74
2021/06/25 10:04:55;;;;;;;12.80;8.95;;;18.90;99.90;;;;;;5130293;28;20159;-74
2021/06/25 10:07:29;;;;;;;15.98;8.30;;;19.00;99.90;;;;;;5127321;28;20290;-73
2021/06/25 10:10:07;;;;;;;16.00;8.48;;;19.20;99.90;;;;;;5129675;28;20162;-73
2021/06/25 10:12:37;;;;;;;11.02;8.00;;;19.20;99.90;;;;;;5112016;28;20190;-75
2021/06/25 10:15:03;;;;;;;11.32;8.65;;;19.20;99.90;;;;;;5129604;28;20170;-74
2021/06/25 10:17:30;;;;;;;12.85;7.70;;;19.10;99.90;;;;;;5127540;28;20167;-75
2021/06/25 10:20:07;;;;;;;10.20;8.70;;;19.00;99.90;;;;;;5111359;28;20166;-75
2021/06/25 10:22:34;;;;;;;10.43;7.28;;;19.00;99.90;;;;;;5129478;28;20227;-74
2021/06/25 10:25:02;;;;;;;17.17;7.80;;;19.10;99.90;;;;;;5129522;28;20670;-74
2021/06/25 10:27:29;;;;;;;10.00;8.70;;;18.90;99.90;;;;;;5108938;28;20201;-75
2021/06/25 10:29:57;;;;;;;8.52;7.72;;;18.70;99.90;;;;;;5129313;28;20170;-74
2021/06/25 10:32:23;;;;;;;11.80;8.30;;;18.70;99.90;;;;;;5129619;28;20284;-73
2021/06/25 10:34:49;;;;;;;13.30;8.38;;;18.50;99.90;;;;;;5129363;28;20162;-74
2021/06/25 10:37:23;;;;;;;16.92;8.20;;;18.50;99.90;;;;;;5127350;28;20288;-73
2021/06/25 10:39:50;;;;;;;10.48;8.05;;;18.50;99.90;;;;;;5129563;28;20158;-74
2021/06/25 10:42:16;;;;;;;13.50;8.07;;;18.60;99.90;;;;;;5129596;28;20163;-73
2021/06/25 10:44:53;;;;;;;9.45;8.10;;;18.60;99.90;;;;;;5129063;28;20178;-74
2021/06/25 10:47:34;;;;;;;8.57;7.68;;;18.70;99.90;;;;;;5126827;28;20478;-74
2021/06/25 10:50:00;;;;;;;11.88;7.85;;;18.80;99.90;;;;;;5128652;28;20647;-74
2021/06/25 10:52:30;;;;;;;10.88;8.90;;;18.80;99.90;;;;;;5110647;28;20198;-75
2021/06/25 10:55:08;;;;;;;14.35;8.60;;;19.10;99.90;;;;;;5128548;28;20159;-74
2021/06/25 10:57:50;;;;;;;13.43;8.95;;;19.30;99.90;;;;;;5125764;28;20155;-74
2021/06/25 11:00:26;;;;;;;11.32;9.18;;;19.40;99.90;;;;;;5128845;28;20158;-74
2021/06/25 11:02:53;;;;;;;11.25;9.15;;;19.50;99.90;;;;;;5129381;28;20200;-74
2021/06/25 11:05:21;;;;;;;14.77;9.73;;;19.30;99.90;;;;;;5111025;28;20159;-74
2021/06/25 11:07:49;;;;;;;12.45;10.02;;;19.10;99.90;;;;;;5125325;28;20253;-74
2021/06/25 11:10:26;;;;;;;11.40;9.68;;;19.30;99.90;;;;;;5127772;28;20707;-74
2021/06/25 11:13:15;;;;;;;14.48;9.75;;;19.40;99.90;;;;;;5127525;28;20198;-74
2021/06/25 11:15:43;;;;;;;16.00;10.65;;;19.60;99.90;;;;;;5109298;28;20632;-74
2021/06/25 11:18:18;;;;;;;12.20;10.05;;;19.50;99.90;;;;;;5125291;28;20178;-74
2021/06/25 11:21:08;;;;;;;12.07;8.93;;;19.30;99.90;;;;;;5127789;28;20188;-74
2021/06/25 11:23:44;;;;;;;10.88;9.13;;;19.10;99.90;;;;;;5114899;28;20249;-74
2021/06/25 11:26:18;;;;;;;18.67;9.57;;;18.80;99.90;;;;;;5127333;28;20171;-74
2021/06/25 11:28:46;;;;;;;19.67;10.63;;;19.20;99.90;;;;;;5124785;28;20180;-75
2021/06/25 11:31:15;;;;;;;16.45;9.57;;;19.20;99.90;;;;;;5127408;28;20158;-74
2021/06/25 11:34:02;;;;;;;11.80;8.10;;;19.20;99.90;;;;;;5127275;28;20204;-74
2021/06/25 11:36:38;;;;;;;16.70;8.40;;;18.80;99.90;;;;;;5127277;28;20181;-74
2021/06/25 11:39:10;;;;;;;15.13;8.43;;;18.80;99.90;;;;;;5124833;28;20155;-74
2021/06/25 11:41:45;;;;;;;10.23;8.25;;;18.80;99.90;;;;;;5109065;28;20173;-74
2021/06/25 11:44:31;;;;;;;15.07;8.93;;;18.90;99.90;;;;;;5108501;28;20235;-74
2021/06/25 11:47:00;;;;;;;12.27;9.07;;;19.30;99.90;;;;;;5126674;28;20178;-75
2021/06/25 11:49:46;;;;;;;14.50;9.10;;;19.40;99.90;;;;;;5125569;28;20147;-74
2021/06/25 11:52:18;;;;;;;14.23;8.80;;;19.30;99.90;;;;;;5127076;28;20186;-74
2021/06/25 11:54:46;;;;;;;9.63;8.30;;;19.40;99.90;;;;;;5127126;28;20159;-74
2021/06/25 11:57:18;;;;;;;12.68;9.00;;;19.40;99.90;;;;;;5106587;28;20162;-75
2021/06/25 12:00:21;;;;;;;12.27;9.35;;;19.50;99.90;;;;;;5108454;28;20186;-74
2021/06/25 12:02:54;;;;;;;14.52;8.75;;;19.50;99.90;;;;;;5007625;28;20177;-74
2021/06/25 12:05:25;;;;;;;9.27;8.38;;;19.50;99.90;;;;;;5024263;28;20182;-74
2021/06/25 12:08:15;;;;;;;15.18;8.55;;;19.40;99.90;;;;;;4984394;28;1089132;-73
2021/06/25 12:10:52;;;;;;;20.48;8.98;;;19.70;99.90;;;;;;5025165;28;20254;-73
2021/06/25 12:13:17;;;;;;;20.95;9.07;;;19.80;99.90;;;;;;5024460;28;20206;-73
2021/06/25 12:15:48;;;;;;;11.68;9.00;;;20.10;99.90;;;;;;5008340;28;20173;-74
2021/06/25 12:18:19;;;;;;;10.25;7.97;;;20.30;99.90;;;;;;5021523;28;20174;-73
2021/06/25 12:20:45;;;;;;;12.73;9.45;;;20.80;99.90;;;;;;5007085;28;20174;-74
2021/06/25 12:23:10;;;;;;;9.02;7.90;;;20.80;99.90;;;;;;5024190;28;20189;-74
2021/06/25 12:25:40;;;;;;;9.98;8.65;;;20.70;99.90;;;;;;5024004;28;20234;-74
2021/06/25 12:28:13;;;;;;;14.27;8.80;;;21.00;99.90;;;;;;5022056;28;20257;-74
2021/06/25 12:31:11;;;;;;;9.40;8.05;;;21.30;99.90;;;;;;5007900;28;20228;-73
2021/06/25 12:33:37;;;;;;;11.32;8.93;;;21.40;99.90;;;;;;5023687;28;20210;-74
2021/06/25 12:36:03;;;;;;;11.85;8.73;;;21.40;99.90;;;;;;5047129;28;20193;-74
2021/06/25 12:38:30;;;;;;;13.48;8.70;;;21.50;99.90;;;;;;5124781;28;20166;-73
2021/06/25 12:41:02;;;;;;;10.68;8.00;;;21.50;99.90;;;;;;5108598;28;20167;-74
2021/06/25 12:43:31;;;;;;;8.63;7.80;;;21.70;99.90;;;;;;5126465;28;20155;-74
2021/06/25 12:46:17;;;;;;;9.23;8.02;;;21.70;99.90;;;;;;5126492;28;20201;-74
2021/06/25 12:49:00;;;;;;;12.90;8.23;;;21.70;99.90;;;;;;5106112;28;20174;-74